Time;durP1;ratioP1;P1;durP2;ratioP2;P2;SDS_P1;SDS_P2;PMS_P1;PMS_P2;Temp;Humidity;BMP_temperature;BMP_pressure;BME280_temperature;BME280_humidity;BME280_pressure;Samples;Min_cycle;Max_cycle;Signal;HPM_P1;HPM_P2
2023/01/04 00:02:24;;;;;;;413.63;151.82;;;;;;;9.39;80.54;99755.97;4988812;28;20610;-64
2023/01/04 00:05:13;;;;;;;391.80;150.95;;;;;;;9.52;81.22;99757.31;4977273;28;20146;-64
2023/01/04 00:07:55;;;;;;;398.40;151.30;;;;;;;9.48;81.01;99751.53;5008176;28;20054;-66
2023/01/04 00:10:44;;;;;;;412.23;153.18;;;;;;;9.45;81.37;99746.56;5004797;28;20544;-64
2023/01/04 00:13:26;;;;;;;390.50;147.73;;;;;;;9.45;80.77;99742.13;5006006;28;20072;-64
2023/01/04 00:16:27;;;;;;;414.95;150.85;;;;;;;9.43;81.50;99743.25;5010045;28;20136;-66
2023/01/04 00:19:03;;;;;;;409.73;150.15;;;;;;;9.39;81.56;99758.59;5002958;28;20045;-64
2023/01/04 00:21:57;;;;;;;407.73;151.93;;;;;;;9.40;81.76;99749.69;5003117;28;20120;-65
2023/01/04 00:24:33;;;;;;;389.23;142.77;;;;;;;9.40;81.24;99759.44;5006176;28;20605;-65
2023/01/04 00:27:27;;;;;;;399.85;147.65;;;;;;;9.32;82.28;99760.22;4990129;28;20494;-65
2023/01/04 00:30:03;;;;;;;401.70;146.27;;;;;;;9.24;81.72;99770.78;5007061;28;20056;-65
2023/01/04 00:32:59;;;;;;;394.08;147.00;;;;;;;9.35;82.29;99769.66;4992791;28;20054;-65
2023/01/04 00:35:35;;;;;;;406.98;146.55;;;;;;;9.25;82.17;99774.25;5000894;28;20064;-66
2023/01/04 00:38:32;;;;;;;393.75;144.00;;;;;;;9.34;82.20;99783.84;4999439;28;20108;-64
2023/01/04 00:41:09;;;;;;;397.83;146.77;;;;;;;9.49;81.94;99790.22;4982771;28;20382;-64
2023/01/04 00:44:20;;;;;;;;;;;;;;;9.47;82.05;99794.81;4986557;28;20104;-64
2023/01/04 00:47:04;;;;;;;406.58;143.00;;;;;;;9.26;82.24;99789.94;4998648;28;20349;-64
2023/01/04 00:49:53;;;;;;;382.65;145.27;;;;;;;9.41;82.23;99798.09;5003911;28;20448;-65
2023/01/04 00:52:35;;;;;;;403.20;148.98;;;;;;;9.37;81.46;99794.13;4997911;28;20136;-63
2023/01/04 00:55:30;;;;;;;416.75;149.13;;;;;;;9.37;81.35;99800.25;4985951;28;20062;-64
2023/01/04 00:58:25;;;;;;;415.63;153.52;;;;;;;9.38;81.98;99790.50;4966671;28;20046;-63
2023/01/04 01:01:05;;;;;;;411.70;154.05;;;;;;;9.33;82.58;99798.91;4998846;28;20783;-63
2023/01/04 01:04:04;;;;;;;419.95;153.38;;;;;;;9.37;82.58;99796.78;4989127;28;20055;-66
2023/01/04 01:06:41;;;;;;;413.58;147.05;;;;;;;9.36;82.57;99801.22;4981657;28;20057;-64
2023/01/04 01:09:36;;;;;;;426.58;150.23;;;;;;;9.49;81.51;99795.50;4985419;28;20509;-64
2023/01/04 01:12:12;;;;;;;388.48;144.73;;;;;;;9.35;81.16;99798.72;4985465;28;20049;-63
2023/01/04 01:15:01;;;;;;;393.73;145.70;;;;;;;9.40;80.97;99797.28;4964550;28;20061;-63
2023/01/04 01:17:43;;;;;;;389.88;146.95;;;;;;;9.47;81.34;99797.47;4963063;28;20074;-63
2023/01/04 01:20:32;;;;;;;391.23;143.60;;;;;;;9.61;80.92;99807.44;4964650;28;20046;-63
2023/01/04 01:23:14;;;;;;;380.88;143.30;;;;;;;9.43;81.02;99812.81;4984203;28;20074;-63
2023/01/04 01:26:09;;;;;;;396.58;144.00;;;;;;;9.20;81.78;99811.72;4982926;28;20054;-63
2023/01/04 01:28:58;;;;;;;402.98;140.98;;;;;;;9.13;82.01;99821.25;4950917;28;20054;-63
2023/01/04 01:31:47;;;;;;;392.90;146.27;;;;;;;9.43;82.06;99814.63;4987287;28;20045;-64
2023/01/04 01:34:29;;;;;;;397.98;145.68;;;;;;;9.29;81.29;99820.53;4966610;28;20054;-63
2023/01/04 01:37:24;;;;;;;387.70;139.13;;;;;;;9.41;81.52;99816.63;4982239;28;20061;-63
2023/01/04 01:40:00;;;;;;;381.13;138.63;;;;;;;9.45;81.08;99828.53;4994411;28;20085;-64
2023/01/04 01:42:49;;;;;;;385.40;140.70;;;;;;;9.41;81.15;99837.78;4989060;28;20054;-63
2023/01/04 01:45:39;;;;;;;385.08;139.93;;;;;;;9.29;80.51;99839.03;4982297;28;20038;-64
2023/01/04 01:48:29;;;;;;;379.05;138.32;;;;;;;9.42;81.04;99839.44;4982192;28;20100;-64
2023/01/04 01:51:11;;;;;;;381.65;140.15;;;;;;;9.45;81.38;99845.22;4983905;28;20050;-64
2023/01/04 01:54:12;;;;;;;395.10;139.52;;;;;;;9.32;80.59;99858.03;4981012;28;20049;-64
2023/01/04 01:57:06;;;;;;;371.30;136.60;;;;;;;9.90;80.23;99857.34;4998748;28;20056;-63
2023/01/04 01:59:59;;;;;;;343.90;131.15;;;;;;;10.14;78.55;99856.56;5003226;28;20053;-64
2023/01/04 02:03:17;;;;;;;358.98;132.15;;;;;;;9.61;79.54;99862.16;4994384;28;20876;-64
2023/01/04 02:06:10;;;;;;;346.50;130.18;;;;;;;9.55;79.70;99866.28;5004577;28;20046;-63
2023/01/04 02:08:53;;;;;;;340.25;129.07;;;;;;;9.65;79.00;99866.97;5005886;28;20064;-63
2023/01/04 02:11:42;;;;;;;349.45;131.45;;;;;;;9.64;78.20;99869.78;5004798;28;20843;-62
2023/01/04 02:14:28;;;;;;;335.27;123.85;;;;;;;9.70;78.43;99861.19;5004277;28;20536;-62
2023/01/04 02:17:20;;;;;;;358.08;131.02;;;;;;;9.66;78.57;99879.22;5003975;28;20154;-64
2023/01/04 02:20:34;;;;;;;328.58;125.30;;;;;;;9.73;78.89;99869.69;4984136;28;20141;-65
2023/01/04 02:23:53;;;;;;;354.13;127.95;;;;;;;9.61;78.30;99878.00;4994563;28;20470;-63
2023/01/04 02:27:06;;;;;;;362.92;128.57;;;;;;;9.26;79.60;99881.63;5003319;28;20400;-62
2023/01/04 02:30:23;;;;;;;341.67;124.72;;;;;;;9.57;79.86;99888.09;4984766;28;20054;-62
2023/01/04 02:33:51;;;;;;;336.58;124.20;;;;;;;9.36;79.90;99891.09;4984072;28;20093;-62
2023/01/04 02:36:46;;;;;;;341.45;123.75;;;;;;;9.08;80.14;99896.69;4983884;28;20049;-63
2023/01/04 02:39:44;;;;;;;347.55;127.88;;;;;;;9.26;80.33;99902.75;4992214;28;20693;-63
2023/01/04 02:46:07;;;;;;;347.15;125.00;;;;;;;9.14;80.18;99912.75;5004554;28;20050;-63
2023/01/04 02:52:04;;;;;;;346.48;126.72;;;;;;;8.97;80.89;99927.66;5005168;28;20176;-62
2023/01/04 02:54:48;;;;;;;358.67;127.88;;;;;;;8.92;81.01;99931.72;5010208;28;20108;-63
2023/01/04 02:57:52;;;;;;;342.73;127.47;;;;;;;8.93;81.42;99942.16;4976631;28;20717;-63
2023/01/04 03:08:19;;;;;;;347.75;124.88;;;;;;;9.27;81.46;99944.06;4962633;28;20613;-65
2023/01/04 03:14:20;;;;;;;354.85;127.85;;;;;;;9.02;80.16;99954.47;4969889;28;20489;-64
2023/01/04 03:17:16;;;;;;;350.65;127.03;;;;;;;8.88;80.70;99960.28;4984309;28;20100;-65
2023/01/04 03:20:01;;;;;;;326.00;124.60;;;;;;;8.93;80.63;99963.28;4973110;28;20042;-63
2023/01/04 03:36:40;;;;;;;331.45;124.53;;;;;;;8.95;80.43;99994.81;4967134;28;20554;-64
2023/01/04 03:49:56;;;;;;;335.90;125.43;;;;;;;8.91;78.93;100027.81;4985608;28;20054;-64
2023/01/04 03:52:43;;;;;;;351.65;128.57;;;;;;;8.95;79.07;100032.66;4978419;28;20766;-63
2023/01/04 03:55:41;;;;;;;342.85;130.13;;;;;;;9.01;79.72;100034.69;4986906;28;20053;-63
2023/01/04 03:58:19;;;;;;;346.80;129.23;;;;;;;9.27;78.98;100023.38;4986132;28;20557;-63
2023/01/04 04:01:10;;;;;;;355.25;131.05;;;;;;;9.21;79.35;100035.38;4992881;28;20042;-65
2023/01/04 04:10:09;;;;;;;362.25;133.90;;;;;;;9.01;78.19;100039.16;4984201;28;20049;-63
2023/01/04 04:12:51;;;;;;;355.13;132.63;;;;;;;9.20;78.69;100035.56;4989847;28;20046;-64
2023/01/04 04:15:40;;;;;;;351.80;131.48;;;;;;;9.33;78.14;100036.00;4987583;28;20070;-64
2023/01/04 04:18:22;;;;;;;373.05;133.98;;;;;;;9.38;78.09;100031.91;4980768;28;20082;-66
2023/01/04 04:21:11;;;;;;;357.92;130.10;;;;;;;9.28;78.27;100048.84;4985203;28;20058;-64
2023/01/04 04:23:56;;;;;;;348.30;131.93;;;;;;;9.38;78.12;100050.41;4988276;28;20417;-64
2023/01/04 04:26:45;;;;;;;376.27;143.07;;;;;;;9.41;78.22;100051.94;4967558;28;20080;-64
2023/01/04 04:29:27;;;;;;;348.35;140.02;;;;;;;9.54;77.61;100055.03;4976751;28;20470;-64
2023/01/04 04:32:16;;;;;;;362.55;134.57;;;;;;;9.55;77.48;100055.84;4984999;28;20050;-64
2023/01/04 04:34:58;;;;;;;355.98;131.77;;;;;;;9.60;77.18;100067.63;4981497;28;20538;-63
2023/01/04 04:37:47;;;;;;;381.67;136.57;;;;;;;9.58;78.02;100063.47;4986770;28;20057;-64
2023/01/04 04:43:36;;;;;;;341.40;134.50;;;;;;;9.67;75.50;100084.56;4982875;28;20441;-63
2023/01/04 04:46:18;;;;;;;330.17;129.52;;;;;;;9.52;76.43;100080.78;4985594;28;20053;-62
2023/01/04 04:49:08;;;;;;;344.27;130.18;;;;;;;9.66;76.39;100077.59;4984286;28;20108;-62
2023/01/04 04:51:57;;;;;;;339.98;131.85;;;;;;;9.88;76.45;100074.47;4982391;28;20050;-63
2023/01/04 04:54:52;;;;;;;352.50;132.88;;;;;;;9.76;76.70;100082.81;4977411;28;20054;-62
2023/01/04 04:57:28;;;;;;;363.23;134.95;;;;;;;9.76;76.22;100077.50;4989979;28;20069;-62
2023/01/04 05:00:16;;;;;;;352.10;131.85;;;;;;;9.69;75.51;100077.28;4996032;28;20050;-62
2023/01/04 05:02:58;;;;;;;367.17;139.32;;;;;;;9.77;76.18;100074.72;4989203;28;20054;-62
2023/01/04 05:05:54;;;;;;;340.83;136.68;;;;;;;9.73;76.39;100078.66;4988705;28;20146;-63
2023/01/04 05:08:30;;;;;;;354.17;134.95;;;;;;;10.17;75.15;100078.66;4984038;28;20056;-62
2023/01/04 05:12:58;;;;;;;355.95;137.30;;;;;;;10.34;73.98;100075.97;4987048;28;20549;-62
2023/01/04 05:14:20;;;;;;;362.83;133.88;;;;;;;10.60;73.35;100070.63;4982607;28;20046;-63
2023/01/04 05:17:16;;;;;;;343.15;134.88;;;;;;;10.64;73.22;100069.31;4982275;28;20054;-63
2023/01/04 05:19:52;;;;;;;350.60;134.43;;;;;;;10.57;72.13;100075.41;4981654;28;20050;-63
2023/01/04 05:22:46;;;;;;;364.92;137.93;;;;;;;10.41;73.61;100080.59;4985008;28;20058;-63
2023/01/04 05:25:22;;;;;;;357.33;135.57;;;;;;;10.18;73.94;100072.38;4969365;28;20466;-63
2023/01/04 05:28:17;;;;;;;360.52;137.27;;;;;;;10.42;74.67;100074.31;4983060;28;20058;-63
2023/01/04 05:30:54;;;;;;;355.83;140.77;;;;;;;10.86;72.35;100064.41;4972185;28;20035;-63
2023/01/04 05:33:43;;;;;;;346.48;137.82;;;;;;;11.23;71.14;100064.84;4972878;28;20054;-63
2023/01/04 05:36:32;;;;;;;345.17;139.45;;;;;;;11.30;71.63;100068.50;4982381;28;20139;-64
2023/01/04 05:39:14;;;;;;;344.75;141.80;;;;;;;11.23;70.88;100060.38;4983967;28;20119;-64
2023/01/04 05:45:19;;;;;;;344.52;136.35;;;;;;;11.42;70.13;100053.09;4978708;28;20049;-64
2023/01/04 05:47:55;;;;;;;355.55;140.02;;;;;;;11.43;70.38;100054.75;4981839;28;20049;-64
2023/01/04 05:50:44;;;;;;;340.27;138.00;;;;;;;11.42;70.84;100042.50;4982819;28;20046;-64
2023/01/04 05:53:26;;;;;;;346.13;142.23;;;;;;;11.82;69.21;100037.19;4979351;28;20073;-63
2023/01/04 05:56:21;;;;;;;357.13;140.32;;;;;;;12.26;68.98;100034.16;4981264;28;20756;-63
2023/01/04 05:58:57;;;;;;;343.45;139.68;;;;;;;12.32;67.74;100042.25;4977620;28;20061;-63
2023/01/04 06:01:46;;;;;;;355.50;137.82;;;;;;;12.54;68.66;100030.88;4972252;28;20050;-65
2023/01/04 06:04:35;;;;;;;353.95;141.68;;;;;;;12.74;68.01;100028.63;4980692;28;20042;-62
2023/01/04 06:07:17;;;;;;;328.85;137.25;;;;;;;12.43;66.25;100027.78;4980310;28;20061;-61
2023/01/04 06:10:06;;;;;;;347.45;137.43;;;;;;;12.48;66.54;100025.44;4981653;28;21405;-61
2023/01/04 06:12:48;;;;;;;360.80;141.68;;;;;;;12.57;67.07;100024.38;4981008;28;20058;-62
2023/01/04 06:15:37;;;;;;;352.42;142.38;;;;;;;12.71;67.45;100014.84;4971686;28;20108;-62
2023/01/04 06:18:32;;;;;;;334.35;139.00;;;;;;;12.83;66.43;100013.47;4980126;28;20142;-63
2023/01/04 06:21:08;;;;;;;325.23;136.95;;;;;;;12.67;66.04;100019.69;4982749;28;20050;-61
2023/01/04 06:24:02;;;;;;;339.38;137.73;;;;;;;12.98;66.40;100017.03;4983674;28;20050;-63
2023/01/04 06:26:38;;;;;;;343.67;141.75;;;;;;;13.31;64.86;100005.19;4982247;28;20050;-63
2023/01/04 06:29:34;;;;;;;345.67;140.35;;;;;;;13.13;63.91;100004.66;4981607;28;20182;-63
2023/01/04 06:32:10;;;;;;;341.27;138.63;;;;;;;13.23;64.65;100001.78;4980861;28;20061;-63
2023/01/04 06:34:59;;;;;;;340.70;142.23;;;;;;;13.29;64.40;100001.03;4981748;28;20051;-64
2023/01/04 06:37:48;;;;;;;350.48;145.75;;;;;;;13.31;64.41;99991.06;4981377;28;20148;-62
2023/01/04 06:40:30;;;;;;;348.08;142.05;;;;;;;13.59;64.30;99978.00;4982090;28;20051;-62
2023/01/04 06:43:19;;;;;;;342.98;141.27;;;;;;;13.64;63.96;99981.78;4982605;28;20061;-64
2023/01/04 06:46:02;;;;;;;341.80;142.85;;;;;;;13.97;64.38;99982.28;4983963;28;20374;-63
2023/01/04 06:48:52;;;;;;;340.73;143.52;;;;;;;13.83;63.24;99970.63;4979475;28;20441;-62
2023/01/04 06:51:34;;;;;;;352.05;148.93;;;;;;;13.94;64.58;99971.97;4982248;28;20074;-61
2023/01/04 06:54:31;;;;;;;437.95;194.80;;;;;;;13.48;62.87;99960.66;4984756;28;20142;-61
2023/01/04 06:57:20;;;;;;;441.08;198.02;;;;;;;13.53;63.67;99962.78;4982821;28;20562;-60
2023/01/04 07:00:11;;;;;;;435.75;197.07;;;;;;;13.48;63.93;99956.16;4986759;28;20046;-61
2023/01/04 07:02:53;;;;;;;430.48;197.40;;;;;;;13.69;63.75;99946.63;4986766;28;20050;-61
2023/01/04 07:05:54;;;;;;;428.45;190.57;;;;;;;13.77;63.59;99946.53;4979124;28;20149;-61
2023/01/04 07:08:36;;;;;;;417.65;185.30;;;;;;;13.80;63.44;99941.69;4985607;28;20134;-61
2023/01/04 07:11:25;;;;;;;418.58;179.05;;;;;;;13.75;62.29;99932.59;4983919;28;20133;-61
2023/01/04 07:14:07;;;;;;;416.90;169.65;;;;;;;13.70;63.09;99927.00;4976156;28;22589;-61
2023/01/04 07:16:56;;;;;;;404.65;178.63;;;;;;;13.60;62.71;99921.09;4983379;28;20212;-61
2023/01/04 07:19:38;;;;;;;412.17;185.98;;;;;;;13.54;63.16;99922.69;4984021;28;20061;-61
2023/01/04 07:22:27;;;;;;;424.38;189.40;;;;;;;13.66;63.08;99921.22;4984863;28;20177;-61
2023/01/04 07:25:09;;;;;;;407.33;185.63;;;;;;;13.78;63.11;99918.91;4984002;28;20078;-62
2023/01/04 07:27:59;;;;;;;390.52;171.60;;;;;;;13.69;62.53;99918.19;4986084;28;20126;-62
2023/01/04 07:30:41;;;;;;;400.63;177.05;;;;;;;13.71;62.25;99923.31;4981364;28;20065;-61
2023/01/04 07:33:30;;;;;;;377.00;161.13;;;;;;;12.80;63.76;99921.59;4986812;28;20046;-60
2023/01/04 07:36:12;;;;;;;388.88;165.65;;;;;;;13.37;63.62;99919.31;4986625;28;20050;-61
2023/01/04 07:39:01;;;;;;;392.88;166.88;;;;;;;13.53;61.88;99907.72;4983370;28;20201;-61
2023/01/04 07:41:56;;;;;;;390.05;169.05;;;;;;;13.06;63.09;99907.91;4986942;28;20242;-61
2023/01/04 07:44:45;;;;;;;403.77;172.65;;;;;;;13.48;62.32;99902.94;4987209;28;20050;-62
2023/01/04 07:47:28;;;;;;;408.02;176.70;;;;;;;13.37;62.64;99889.22;4985970;28;20050;-61
2023/01/04 07:50:17;;;;;;;415.27;181.60;;;;;;;13.46;64.03;99882.81;4986333;28;20064;-61
2023/01/04 07:52:59;;;;;;;391.48;175.88;;;;;;;13.61;62.26;99885.50;4974885;28;20051;-61
2023/01/04 07:55:59;;;;;;;410.20;178.85;;;;;;;13.44;62.41;99867.03;4993960;28;20041;-61
2023/01/04 07:58:35;;;;;;;414.40;180.25;;;;;;;13.56;62.96;99869.25;4992689;28;20058;-60
2023/01/04 08:01:34;;;;;;;401.08;178.48;;;;;;;13.84;62.74;99864.94;5001840;28;20057;-62
2023/01/04 08:04:12;;;;;;;396.80;178.18;;;;;;;13.74;62.25;99861.72;5004242;28;20042;-63
2023/01/04 08:07:07;;;;;;;414.15;179.82;;;;;;;13.64;61.45;99855.84;5004872;28;20057;-63
2023/01/04 08:09:43;;;;;;;414.55;180.15;;;;;;;13.99;61.90;99862.22;4988334;28;20160;-63
2023/01/04 08:12:38;;;;;;;421.08;184.30;;;;;;;13.45;61.33;99851.91;5006591;28;20038;-63
2023/01/04 08:15:14;;;;;;;424.23;182.07;;;;;;;13.58;61.20;99848.59;5007102;28;20060;-63
2023/01/04 08:18:09;;;;;;;419.35;190.60;;;;;;;13.45;63.91;99847.38;5007228;28;20061;-63
2023/01/04 08:20:45;;;;;;;414.38;186.77;;;;;;;13.66;61.70;99829.88;5007022;28;20049;-63
2023/01/04 08:23:38;;;;;;;392.95;180.40;;;;;;;13.30;61.32;99835.91;5006667;28;20050;-62
2023/01/04 08:26:28;;;;;;;414.98;187.60;;;;;;;13.47;62.84;99829.41;5006049;28;21593;-62
2023/01/04 08:29:17;;;;;;;423.73;186.52;;;;;;;13.80;62.00;99821.06;5006176;28;20429;-62
2023/01/04 08:31:59;;;;;;;405.30;180.75;;;;;;;13.99;61.25;99816.94;5006995;28;20570;-62
2023/01/04 08:34:48;;;;;;;417.55;179.05;;;;;;;13.98;60.41;99815.31;4999769;28;20061;-63
2023/01/04 08:37:30;;;;;;;396.15;182.00;;;;;;;14.03;60.78;99807.59;5006532;28;20080;-63
2023/01/04 08:40:19;;;;;;;420.45;188.15;;;;;;;14.23;60.47;99806.81;5006200;28;20062;-63
2023/01/04 08:43:01;;;;;;;403.98;181.80;;;;;;;14.27;61.98;99796.59;5006901;28;20053;-63
2023/01/04 08:45:50;;;;;;;411.35;184.40;;;;;;;13.63;60.32;99799.09;4989176;28;20058;-62
2023/01/04 08:48:40;;;;;;;408.55;183.90;;;;;;;13.72;61.74;99799.84;4978323;28;20050;-62
2023/01/04 08:51:35;;;;;;;403.73;181.13;;;;;;;14.00;61.31;99798.13;4986274;28;20057;-63
2023/01/04 08:54:12;;;;;;;427.58;182.38;;;;;;;14.02;61.56;99789.97;4984489;28;20060;-62
2023/01/04 08:57:07;;;;;;;397.45;184.00;;;;;;;14.03;61.50;99789.75;4967039;28;20058;-63
2023/01/04 09:00:03;;;;;;;421.40;184.60;;;;;;;14.26;61.52;99782.44;4967001;28;20526;-62
2023/01/04 09:02:39;;;;;;;424.48;189.82;;;;;;;14.24;60.50;99783.66;4982141;28;20291;-62
2023/01/04 09:05:27;;;;;;;407.70;183.65;;;;;;;13.96;60.24;99772.88;4978211;28;20522;-63
2023/01/04 09:08:16;;;;;;;409.92;185.35;;;;;;;14.19;61.26;99772.72;4985854;28;20077;-62
2023/01/04 09:11:03;;;;;;;421.80;193.45;;;;;;;14.22;60.05;99764.34;4986684;28;20573;-63
2023/01/04 09:13:52;;;;;;;418.60;189.53;;;;;;;14.35;60.62;99759.16;4978790;28;20081;-62
2023/01/04 09:16:35;;;;;;;422.88;189.95;;;;;;;14.35;59.17;99761.81;4986303;28;20073;-63
2023/01/04 09:19:24;;;;;;;403.38;183.60;;;;;;;14.31;59.61;99757.88;4986061;28;20525;-62
2023/01/04 09:22:06;;;;;;;424.55;192.75;;;;;;;14.57;59.82;99757.31;4986190;28;20042;-63
2023/01/04 09:24:55;;;;;;;429.30;195.45;;;;;;;14.54;59.68;99752.38;4970898;28;20054;-63
2023/01/04 09:27:38;;;;;;;423.42;191.20;;;;;;;14.72;59.60;99752.75;4986258;28;20054;-63
2023/01/04 09:30:30;;;;;;;422.10;190.20;;;;;;;14.76;59.25;99754.00;4985822;28;20054;-63
2023/01/04 09:33:12;;;;;;;443.83;193.88;;;;;;;14.71;59.85;99746.59;4985657;28;20054;-64
2023/01/04 09:36:23;;;;;;;433.20;192.82;;;;;;;14.58;60.85;99742.97;4986056;28;20050;-63
2023/01/04 09:38:59;;;;;;;423.58;194.60;;;;;;;14.65;59.48;99747.34;4986212;28;20085;-64
2023/01/04 09:42:04;;;;;;;434.08;194.98;;;;;;;14.68;59.72;99741.66;4985097;28;20077;-63
2023/01/04 09:45:00;;;;;;;416.85;191.85;;;;;;;14.74;60.45;99743.53;4985944;28;20058;-63
2023/01/04 09:48:16;;;;;;;421.02;192.13;;;;;;;14.90;59.59;99738.94;4985674;28;20050;-63
2023/01/04 09:51:22;;;;;;;439.73;194.15;;;;;;;14.95;59.98;99739.16;4985501;28;20073;-63
2023/01/04 09:54:25;;;;;;;420.67;192.68;;;;;;;14.88;59.39;99736.44;4987279;28;20050;-64
2023/01/04 09:57:44;;;;;;;437.80;198.75;;;;;;;14.82;59.85;99732.69;5004921;28;20041;-63
2023/01/04 10:01:02;;;;;;;432.73;193.82;;;;;;;14.81;60.82;99728.41;5005397;28;20091;-62
2023/01/04 10:04:02;;;;;;;424.02;196.57;;;;;;;14.93;61.16;99727.84;4998830;28;20069;-62
2023/01/04 10:06:51;;;;;;;407.88;194.10;;;;;;;14.93;60.64;99722.53;5005290;28;20111;-62
2023/01/04 10:09:37;;;;;;;426.25;195.20;;;;;;;14.91;60.06;99719.25;5005363;28;20050;-62
2023/01/04 10:13:08;;;;;;;424.52;196.82;;;;;;;14.82;60.82;99723.91;5005055;28;20509;-63
2023/01/04 10:34:22;;;;;;;387.20;188.50;;;;;;;15.32;58.30;99706.72;4737931;27;9453109;-65
2023/01/04 10:37:16;;;;;;;400.42;185.07;;;;;;;15.28;58.13;99705.47;5066116;28;20114;-64
2023/01/04 10:40:01;;;;;;;386.45;179.90;;;;;;;14.94;58.31;99698.34;5061551;28;20119;-64
2023/01/04 10:42:59;;;;;;;394.23;181.05;;;;;;;15.11;58.60;99705.00;5079194;28;20383;-66
2023/01/04 10:46:11;;;;;;;398.50;175.93;;;;;;;15.21;58.38;99701.97;5043399;28;20040;-68
2023/01/04 10:49:15;;;;;;;397.42;176.32;;;;;;;15.18;59.47;99700.50;5080892;28;20082;-65
2023/01/04 10:52:13;;;;;;;383.90;173.35;;;;;;;15.19;59.09;99702.16;5064505;28;20475;-65
2023/01/04 10:55:02;;;;;;;398.95;174.45;;;;;;;14.99;61.26;99703.06;5070676;28;20076;-64
2023/01/04 10:58:26;;;;;;;384.85;173.75;;;;;;;14.88;62.72;99699.09;5060508;28;20155;-65
2023/01/04 11:01:24;;;;;;;408.10;182.73;;;;;;;14.75;60.90;99693.69;5056462;28;20048;-66
2023/01/04 11:04:46;;;;;;;399.92;175.07;;;;;;;14.66;62.98;99698.34;5060331;28;20064;-68
2023/01/04 11:07:40;;;;;;;395.50;177.95;;;;;;;14.62;64.11;99699.75;5067937;28;20049;-69
2023/01/04 11:10:41;;;;;;;388.85;173.45;;;;;;;14.73;63.55;99701.06;5063204;28;20102;-62
2023/01/04 11:13:24;;;;;;;396.38;172.73;;;;;;;14.57;63.35;99709.34;5058062;28;20052;-65
2023/01/04 11:16:14;;;;;;;404.85;171.90;;;;;;;14.75;63.20;99701.69;5060140;28;20786;-61
2023/01/04 11:19:11;;;;;;;389.48;165.82;;;;;;;14.49;64.41;99706.81;5051632;28;20053;-66
2023/01/04 11:21:56;;;;;;;393.77;171.25;;;;;;;14.58;63.73;99705.66;5070478;28;20037;-64
2023/01/04 11:24:50;;;;;;;382.65;159.18;;;;;;;14.45;63.25;99700.22;5073136;28;20360;-65
2023/01/04 11:28:09;;;;;;;380.98;165.40;;;;;;;14.34;65.09;99699.69;5061466;28;20051;-64
2023/01/04 11:31:16;;;;;;;366.52;163.02;;;;;;;14.43;65.20;99697.75;5093176;28;20044;-65
2023/01/04 11:34:02;;;;;;;354.33;157.55;;;;;;;14.52;64.54;99699.25;5082517;28;20048;-64
2023/01/04 11:36:53;;;;;;;351.45;155.95;;;;;;;14.42;64.93;99704.13;5081622;28;20048;-64
2023/01/04 11:39:36;;;;;;;354.15;159.43;;;;;;;14.48;64.63;99706.00;5068293;28;20089;-66
2023/01/04 11:42:28;;;;;;;372.15;158.65;;;;;;;14.66;63.50;99702.84;5066523;28;20067;-66
2023/01/04 11:45:23;;;;;;;354.85;156.35;;;;;;;14.65;63.52;99699.34;5072754;28;20123;-65
2023/01/04 11:48:12;;;;;;;343.90;152.90;;;;;;;14.38;64.84;99693.00;5073970;28;20044;-64
2023/01/04 11:51:01;;;;;;;340.77;151.85;;;;;;;14.16;66.22;99690.53;5075377;28;20044;-64
2023/01/04 11:54:09;;;;;;;358.27;155.23;;;;;;;13.82;66.74;99688.53;5072832;28;20102;-65
2023/01/04 11:57:09;;;;;;;346.25;157.40;;;;;;;13.72;67.59;99696.81;5037572;28;20044;-63
2023/01/04 12:00:24;;;;;;;349.80;158.98;;;;;;;13.66;67.62;99694.09;5056411;28;20544;-65
2023/01/04 12:03:24;;;;;;;357.77;161.68;;;;;;;13.28;69.14;99696.91;5074108;28;20052;-64
2023/01/04 12:05:59;;;;;;;377.80;166.30;;;;;;;13.17;69.91;99701.91;5070993;28;20044;-64
2023/01/04 12:08:49;;;;;;;384.33;165.25;;;;;;;12.94;70.56;99704.63;5071198;28;20048;-64
2023/01/04 12:11:42;;;;;;;401.67;168.35;;;;;;;13.10;69.47;99709.75;5080086;28;20105;-67
2023/01/04 12:14:34;;;;;;;384.33;163.70;;;;;;;13.02;70.10;99704.53;5058580;28;20047;-69
2023/01/04 12:17:50;;;;;;;399.75;168.13;;;;;;;12.97;70.41;99720.19;5067490;28;20052;-68
2023/01/04 12:20:32;;;;;;;383.13;160.48;;;;;;;12.72;71.03;99726.78;5073180;28;20132;-67
2023/01/04 12:23:21;;;;;;;391.75;166.02;;;;;;;12.75;71.34;99716.59;5060032;28;20068;-73
2023/01/04 12:26:03;;;;;;;367.95;158.07;;;;;;;12.68;71.38;99722.81;5076098;28;20056;-71
2023/01/04 12:28:57;;;;;;;367.40;159.32;;;;;;;12.50;71.75;99723.16;5064026;28;20057;-72
2023/01/04 12:31:45;;;;;;;365.58;150.07;;;;;;;12.56;71.72;99720.63;5072065;28;20056;-71
2023/01/04 12:34:40;;;;;;;342.63;145.15;;;;;;;12.48;71.56;99726.00;5049684;28;20589;-69
2023/01/04 12:37:44;;;;;;;357.48;142.98;;;;;;;12.30;72.05;99729.97;5057126;28;20058;-73
2023/01/04 12:40:46;;;;;;;336.45;140.77;;;;;;;12.29;72.19;99731.81;5052025;28;20037;-68
2023/01/04 12:43:31;;;;;;;325.85;139.70;;;;;;;12.21;72.28;99721.25;5051620;28;20048;-68
2023/01/04 12:49:34;;;;;;;349.02;145.15;;;;;;;12.30;71.90;99735.31;5039101;28;20790;-64
2023/01/04 12:52:30;;;;;;;341.07;143.73;;;;;;;12.22;72.31;99736.16;4701481;28;9999905;-67
2023/01/04 12:55:31;;;;;;;339.27;139.13;;;;;;;11.99;73.07;99732.69;5055110;28;20521;-68
2023/01/04 12:58:26;;;;;;;355.27;146.43;;;;;;;11.83;74.02;99736.25;5056889;28;20053;-68
2023/01/04 13:01:33;;;;;;;360.00;149.50;;;;;;;12.00;73.09;99740.47;5028631;28;20131;-69
2023/01/04 13:04:42;;;;;;;380.20;152.97;;;;;;;11.94;73.26;99741.19;5058027;28;20083;-68
2023/01/04 13:08:02;;;;;;;365.40;152.27;;;;;;;11.90;73.81;99744.38;5049080;28;20293;-74
2023/01/04 13:10:54;;;;;;;341.17;144.80;;;;;;;11.59;74.29;99750.47;4981914;28;20046;-66
2023/01/04 13:13:55;;;;;;;344.23;147.45;;;;;;;11.71;74.21;99738.47;5063273;28;20074;-65
2023/01/04 13:17:15;;;;;;;354.42;145.13;;;;;;;11.39;74.97;99746.56;5046012;28;20040;-67
2023/01/04 13:19:58;;;;;;;348.23;146.43;;;;;;;11.14;76.11;99748.50;5061475;28;20148;-71
2023/01/04 13:23:00;;;;;;;341.33;145.73;;;;;;;10.95;76.91;99742.75;5050392;28;20121;-68
2023/01/04 13:25:35;;;;;;;361.27;145.57;;;;;;;11.27;75.99;99747.94;5055594;28;20053;-68
2023/01/04 13:28:31;;;;;;;355.88;148.10;;;;;;;10.91;76.86;99744.91;5047232;28;20048;-69
2023/01/04 13:31:06;;;;;;;370.35;154.98;;;;;;;10.87;78.09;99745.41;5063282;28;20044;-67
2023/01/04 13:34:04;;;;;;;361.77;153.13;;;;;;;11.01;77.27;99742.91;5063841;28;20045;-65
2023/01/04 13:36:39;;;;;;;381.77;159.68;;;;;;;10.95;77.00;99740.91;5063152;28;20044;-65
2023/01/04 13:39:36;;;;;;;339.05;147.63;;;;;;;10.76;77.24;99752.69;5062723;28;20526;-65
2023/01/04 13:42:23;;;;;;;357.40;153.65;;;;;;;10.90;77.50;99764.44;5062867;28;20464;-64
2023/01/04 13:45:34;;;;;;;360.38;148.73;;;;;;;11.14;76.57;99760.91;5063082;28;20063;-65
2023/01/04 13:48:14;;;;;;;371.65;149.98;;;;;;;11.06;76.64;99759.13;5062462;28;20794;-65
2023/01/04 13:51:23;;;;;;;369.33;147.23;;;;;;;10.82;77.33;99754.69;5059804;28;20064;-65
2023/01/04 13:54:23;;;;;;;356.50;143.85;;;;;;;10.79;77.76;99760.34;5056575;28;20051;-65
2023/01/04 13:57:19;;;;;;;337.88;145.50;;;;;;;11.02;77.38;99756.97;5061106;28;20055;-65
2023/01/04 14:00:13;;;;;;;348.45;148.35;;;;;;;11.16;76.48;99766.88;5051259;28;20057;-67
2023/01/04 14:03:32;;;;;;;353.02;148.57;;;;;;;11.20;76.00;99765.53;5033714;28;20062;-70
2023/01/04 14:06:29;;;;;;;376.50;155.15;;;;;;;10.95;76.73;99764.78;4989064;28;20593;-65